sensor_id;sensor_type;location;lat;lon;timestamp;pressure;altitude;pressure_sealevel;temperature;humidity
65534;BME280;53640;55.838;37.184;2024-02-21T00:00:28;99804.88;;;-9.47;53.34
65534;BME280;53640;55.838;37.184;2024-02-21T00:02:54;99951.03;;;-8.51;53.26
65534;BME280;53640;55.838;37.184;2024-02-21T00:05:21;99912.22;;;-8.78;53.21
65534;BME280;53640;55.838;37.184;2024-02-21T00:07:48;99912.31;;;-8.79;53.21
65534;BME280;53640;55.838;37.184;2024-02-21T00:10:14;99897.88;;;-8.88;53.30
65534;BME280;53640;55.838;37.184;2024-02-21T00:12:40;99927.38;;;-8.67;53.15
65534;BME280;53640;55.838;37.184;2024-02-21T00:15:08;99924.84;;;-8.69;53.28
65534;BME280;53640;55.838;37.184;2024-02-21T00:17:35;99800.72;;;-9.51;53.21
65534;BME280;53640;55.838;37.184;2024-02-21T00:20:01;99906.59;;;-8.87;53.29
65534;BME280;53640;55.838;37.184;2024-02-21T00:22:28;99909.22;;;-8.87;53.40
65534;BME280;53640;55.838;37.184;2024-02-21T00:24:57;99875.34;;;-9.08;53.46
65534;BME280;53640;55.838;37.184;2024-02-21T00:27:24;99881.66;;;-9.12;53.41
65534;BME280;53640;55.838;37.184;2024-02-21T00:29:50;99945.16;;;-8.72;53.37
65534;BME280;53640;55.838;37.184;2024-02-21T00:32:17;99888.59;;;-9.11;53.67
65534;BME280;53640;55.838;37.184;2024-02-21T00:34:43;99940.22;;;-8.78;53.67
65534;BME280;53640;55.838;37.184;2024-02-21T00:37:10;99938.44;;;-8.78;53.74
65534;BME280;53640;55.838;37.184;2024-02-21T00:39:36;99920.97;;;-8.95;53.59
65534;BME280;53640;55.838;37.184;2024-02-21T00:42:03;99878.25;;;-9.14;53.71
65534;BME280;53640;55.838;37.184;2024-02-21T00:44:29;99930.97;;;-8.85;53.65
65534;BME280;53640;55.838;37.184;2024-02-21T00:46:56;99858.03;;;-9.28;53.99
65534;BME280;53640;55.838;37.184;2024-02-21T00:49:22;99921.56;;;-8.89;53.80
65534;BME280;53640;55.838;37.184;2024-02-21T00:51:49;99860.25;;;-9.20;53.95
65534;BME280;53640;55.838;37.184;2024-02-21T00:54:15;99886.41;;;-9.03;53.90
65534;BME280;53640;55.838;37.184;2024-02-21T00:56:42;99856.00;;;-9.23;53.98
65534;BME280;53640;55.838;37.184;2024-02-21T00:59:09;99874.88;;;-9.16;54.13
65534;BME280;53640;55.838;37.184;2024-02-21T01:01:35;99848.69;;;-9.33;54.37
65534;BME280;53640;55.838;37.184;2024-02-21T01:04:01;99850.06;;;-9.26;54.50
65534;BME280;53640;55.838;37.184;2024-02-21T01:06:28;99896.59;;;-8.97;54.77
65534;BME280;53640;55.838;37.184;2024-02-21T01:08:54;99898.91;;;-8.91;54.58
65534;BME280;53640;55.838;37.184;2024-02-21T01:11:21;99853.06;;;-9.17;54.44
65534;BME280;53640;55.838;37.184;2024-02-21T01:13:47;99877.25;;;-8.94;54.53
65534;BME280;53640;55.838;37.184;2024-02-21T01:16:15;99811.25;;;-9.35;54.62
65534;BME280;53640;55.838;37.184;2024-02-21T01:18:42;99884.16;;;-8.93;54.69
65534;BME280;53640;55.838;37.184;2024-02-21T01:21:09;99846.66;;;-9.11;54.69
65534;BME280;53640;55.838;37.184;2024-02-21T01:23:37;99887.31;;;-8.86;54.70
65534;BME280;53640;55.838;37.184;2024-02-21T01:26:04;99866.34;;;-8.86;54.66
65534;BME280;53640;55.838;37.184;2024-02-21T01:28:31;99876.31;;;-8.77;54.58
65534;BME280;53640;55.838;37.184;2024-02-21T01:30:59;99822.31;;;-9.13;54.57
65534;BME280;53640;55.838;37.184;2024-02-21T01:33:25;99839.44;;;-8.90;54.70
65534;BME280;53640;55.838;37.184;2024-02-21T01:35:52;99836.44;;;-9.00;54.81
65534;BME280;53640;55.838;37.184;2024-02-21T01:38:18;99861.38;;;-8.75;54.87
65534;BME280;53640;55.838;37.184;2024-02-21T01:40:45;99846.88;;;-8.82;54.59
65534;BME280;53640;55.838;37.184;2024-02-21T01:43:17;99857.91;;;-8.76;54.69
65534;BME280;53640;55.838;37.184;2024-02-21T01:45:52;99844.31;;;-8.84;54.99
65534;BME280;53640;55.838;37.184;2024-02-21T01:48:22;99807.44;;;-8.97;54.76
65534;BME280;53640;55.838;37.184;2024-02-21T01:50:50;99875.66;;;-8.65;55.12
65534;BME280;53640;55.838;37.184;2024-02-21T01:53:20;99862.72;;;-8.68;55.08
65534;BME280;53640;55.838;37.184;2024-02-21T01:55:47;99831.72;;;-8.77;54.71
65534;BME280;53640;55.838;37.184;2024-02-21T01:58:15;99832.94;;;-8.67;54.69
65534;BME280;53640;55.838;37.184;2024-02-21T02:00:44;99850.19;;;-8.63;55.00
65534;BME280;53640;55.838;37.184;2024-02-21T02:03:11;99823.38;;;-8.68;54.82
65534;BME280;53640;55.838;37.184;2024-02-21T02:05:49;99821.91;;;-8.74;55.12
65534;BME280;53640;55.838;37.184;2024-02-21T02:08:20;99856.53;;;-8.67;55.40
65534;BME280;53640;55.838;37.184;2024-02-21T02:10:49;99781.88;;;-9.09;55.62
65534;BME280;53640;55.838;37.184;2024-02-21T02:13:16;99794.56;;;-9.01;54.97
65534;BME280;53640;55.838;37.184;2024-02-21T02:15:45;99711.84;;;-9.56;55.37
65534;BME280;53640;55.838;37.184;2024-02-21T02:18:13;99774.91;;;-9.10;55.37
65534;BME280;53640;55.838;37.184;2024-02-21T02:20:41;99843.16;;;-8.62;55.43
65534;BME280;53640;55.838;37.184;2024-02-21T02:23:30;99761.16;;;-9.13;55.29
65534;BME280;53640;55.838;37.184;2024-02-21T02:26:01;99865.69;;;-8.43;55.23
65534;BME280;53640;55.838;37.184;2024-02-21T02:28:37;99794.25;;;-8.79;55.35
65534;BME280;53640;55.838;37.184;2024-02-21T02:31:05;99853.59;;;-8.45;55.26
65534;BME280;53640;55.838;37.184;2024-02-21T02:33:32;99872.28;;;-8.35;55.40
65534;BME280;53640;55.838;37.184;2024-02-21T02:35:59;99775.22;;;-8.83;55.32
65534;BME280;53640;55.838;37.184;2024-02-21T02:38:26;99786.63;;;-8.84;55.28
65534;BME280;53640;55.838;37.184;2024-02-21T02:41:05;99815.00;;;-8.59;55.31
65534;BME280;53640;55.838;37.184;2024-02-21T02:43:33;99825.91;;;-8.51;55.18
65534;BME280;53640;55.838;37.184;2024-02-21T02:46:00;99788.41;;;-8.69;55.22
65534;BME280;53640;55.838;37.184;2024-02-21T02:48:27;99813.63;;;-8.50;55.20
65534;BME280;53640;55.838;37.184;2024-02-21T02:50:53;99862.66;;;-8.19;55.05
65534;BME280;53640;55.838;37.184;2024-02-21T02:53:21;99765.97;;;-8.74;55.29
65534;BME280;53640;55.838;37.184;2024-02-21T02:55:48;99844.59;;;-8.25;55.40
65534;BME280;53640;55.838;37.184;2024-02-21T02:58:14;99799.16;;;-8.57;55.45
65534;BME280;53640;55.838;37.184;2024-02-21T03:00:42;99795.50;;;-8.55;55.34
65534;BME280;53640;55.838;37.184;2024-02-21T03:03:09;99806.09;;;-8.40;55.21
65534;BME280;53640;55.838;37.184;2024-02-21T03:05:35;99823.78;;;-8.28;55.16
65534;BME280;53640;55.838;37.184;2024-02-21T03:08:02;99818.00;;;-8.35;55.02
65534;BME280;53640;55.838;37.184;2024-02-21T03:10:33;99780.38;;;-8.50;55.26
65534;BME280;53640;55.838;37.184;2024-02-21T03:13:00;99713.13;;;-8.98;55.32
65534;BME280;53640;55.838;37.184;2024-02-21T03:15:26;99833.06;;;-8.07;55.22
65534;BME280;53640;55.838;37.184;2024-02-21T03:17:52;99791.00;;;-8.37;55.13
65534;BME280;53640;55.838;37.184;2024-02-21T03:20:19;99775.38;;;-8.38;55.11
65534;BME280;53640;55.838;37.184;2024-02-21T03:22:45;99806.22;;;-8.12;54.80
65534;BME280;53640;55.838;37.184;2024-02-21T03:25:12;99843.56;;;-8.07;55.07
65534;BME280;53640;55.838;37.184;2024-02-21T03:27:40;99804.88;;;-8.19;55.17
65534;BME280;53640;55.838;37.184;2024-02-21T03:30:07;99842.78;;;-7.93;55.11
65534;BME280;53640;55.838;37.184;2024-02-21T03:32:34;99853.97;;;-7.89;55.03
65534;BME280;53640;55.838;37.184;2024-02-21T03:35:01;99815.78;;;-8.11;55.14
65534;BME280;53640;55.838;37.184;2024-02-21T03:37:31;99812.41;;;-8.13;55.24
65534;BME280;53640;55.838;37.184;2024-02-21T03:39:58;99752.22;;;-8.32;55.00
65534;BME280;53640;55.838;37.184;2024-02-21T03:42:24;99753.50;;;-8.39;55.12
65534;BME280;53640;55.838;37.184;2024-02-21T03:44:51;99787.06;;;-8.14;55.13
65534;BME280;53640;55.838;37.184;2024-02-21T03:47:18;99758.97;;;-8.28;55.22
65534;BME280;53640;55.838;37.184;2024-02-21T03:49:45;99828.28;;;-7.84;55.22
65534;BME280;53640;55.838;37.184;2024-02-21T03:52:14;99818.28;;;-7.94;55.41
65534;BME280;53640;55.838;37.184;2024-02-21T03:54:41;99817.66;;;-7.83;55.32
65534;BME280;53640;55.838;37.184;2024-02-21T03:57:07;99780.88;;;-8.13;55.15
65534;BME280;53640;55.838;37.184;2024-02-21T03:59:34;99846.88;;;-7.73;55.29
65534;BME280;53640;55.838;37.184;2024-02-21T04:02:00;99850.00;;;-7.66;55.08
65534;BME280;53640;55.838;37.184;2024-02-21T04:04:27;99816.81;;;-7.83;55.24
65534;BME280;53640;55.838;37.184;2024-02-21T04:06:54;99703.50;;;-8.52;54.99
65534;BME280;53640;55.838;37.184;2024-02-21T04:09:21;99799.03;;;-7.94;55.14
65534;BME280;53640;55.838;37.184;2024-02-21T04:11:51;99794.56;;;-7.92;55.22
65534;BME280;53640;55.838;37.184;2024-02-21T04:14:18;99824.44;;;-7.79;54.83
65534;BME280;53640;55.838;37.184;2024-02-21T04:16:44;99853.78;;;-7.56;55.06
65534;BME280;53640;55.838;37.184;2024-02-21T04:19:11;99793.91;;;-7.96;55.24
65534;BME280;53640;55.838;37.184;2024-02-21T04:21:38;99856.22;;;-7.53;55.10
65534;BME280;53640;55.838;37.184;2024-02-21T04:24:05;99780.19;;;-8.01;55.25
65534;BME280;53640;55.838;37.184;2024-02-21T04:26:33;99812.22;;;-7.80;55.25
65534;BME280;53640;55.838;37.184;2024-02-21T04:29:00;99826.44;;;-7.68;55.11
65534;BME280;53640;55.838;37.184;2024-02-21T04:31:28;99855.56;;;-7.57;55.42
65534;BME280;53640;55.838;37.184;2024-02-21T04:33:55;99829.16;;;-7.70;55.11
65534;BME280;53640;55.838;37.184;2024-02-21T04:36:22;99795.91;;;-7.85;55.02
65534;BME280;53640;55.838;37.184;2024-02-21T04:38:48;99865.72;;;-7.51;55.45
65534;BME280;53640;55.838;37.184;2024-02-21T04:41:16;99749.38;;;-8.13;54.93
65534;BME280;53640;55.838;37.184;2024-02-21T04:43:42;99808.13;;;-7.70;55.10
65534;BME280;53640;55.838;37.184;2024-02-21T04:46:09;99846.94;;;-7.45;55.42
65534;BME280;53640;55.838;37.184;2024-02-21T04:48:35;99842.63;;;-7.46;55.29
65534;BME280;53640;55.838;37.184;2024-02-21T04:51:02;99800.91;;;-7.66;55.23
65534;BME280;53640;55.838;37.184;2024-02-21T04:53:31;99852.69;;;-7.38;55.18
65534;BME280;53640;55.838;37.184;2024-02-21T04:55:58;99776.75;;;-7.87;55.28
65534;BME280;53640;55.838;37.184;2024-02-21T04:58:25;99720.19;;;-8.23;54.83
65534;BME280;53640;55.838;37.184;2024-02-21T05:00:51;99831.16;;;-7.59;55.42
65534;BME280;53640;55.838;37.184;2024-02-21T05:03:19;99853.53;;;-7.37;55.27
65534;BME280;53640;55.838;37.184;2024-02-21T05:05:45;99843.25;;;-7.56;55.25
65534;BME280;53640;55.838;37.184;2024-02-21T05:08:12;99831.84;;;-7.55;55.41
65534;BME280;53640;55.838;37.184;2024-02-21T05:10:38;99819.31;;;-7.66;55.40
65534;BME280;53640;55.838;37.184;2024-02-21T05:13:05;99791.88;;;-7.76;55.49
65534;BME280;53640;55.838;37.184;2024-02-21T05:15:31;99787.56;;;-7.77;55.20
65534;BME280;53640;55.838;37.184;2024-02-21T05:17:59;99839.44;;;-7.51;55.33
65534;BME280;53640;55.838;37.184;2024-02-21T05:20:25;99815.41;;;-7.59;55.34
65534;BME280;53640;55.838;37.184;2024-02-21T05:22:52;99834.56;;;-7.42;55.22
65534;BME280;53640;55.838;37.184;2024-02-21T05:25:18;99860.50;;;-7.22;55.11
65534;BME280;53640;55.838;37.184;2024-02-21T05:27:45;99843.00;;;-7.37;55.43
65534;BME280;53640;55.838;37.184;2024-02-21T05:30:13;99816.50;;;-7.49;55.26
65534;BME280;53640;55.838;37.184;2024-02-21T05:32:39;99825.47;;;-7.37;55.12
65534;BME280;53640;55.838;37.184;2024-02-21T05:35:07;99800.75;;;-7.49;55.35
65534;BME280;53640;55.838;37.184;2024-02-21T05:37:34;99810.25;;;-7.46;55.25
65534;BME280;53640;55.838;37.184;2024-02-21T05:40:00;99851.13;;;-7.12;55.31
65534;BME280;53640;55.838;37.184;2024-02-21T05:42:27;99762.69;;;-7.72;54.90
65534;BME280;53640;55.838;37.184;2024-02-21T05:44:54;99811.66;;;-7.26;55.28
65534;BME280;53640;55.838;37.184;2024-02-21T05:47:20;99836.75;;;-7.21;55.34
65534;BME280;53640;55.838;37.184;2024-02-21T05:49:47;99808.75;;;-7.36;55.24
65534;BME280;53640;55.838;37.184;2024-02-21T05:52:14;99824.34;;;-7.18;55.29
65534;BME280;53640;55.838;37.184;2024-02-21T05:54:41;99728.06;;;-7.78;55.05
65534;BME280;53640;55.838;37.184;2024-02-21T05:57:08;99819.38;;;-7.23;55.26
65534;BME280;53640;55.838;37.184;2024-02-21T05:59:39;99836.38;;;-7.14;55.44
65534;BME280;53640;55.838;37.184;2024-02-21T06:02:08;99837.97;;;-7.12;55.30
65534;BME280;53640;55.838;37.184;2024-02-21T06:04:34;99848.78;;;-7.02;55.28
65534;BME280;53640;55.838;37.184;2024-02-21T06:07:01;99825.78;;;-7.13;55.06
65534;BME280;53640;55.838;37.184;2024-02-21T06:09:28;99842.22;;;-6.95;55.31
65534;BME280;53640;55.838;37.184;2024-02-21T06:11:54;99767.34;;;-7.47;55.08
65534;BME280;53640;55.838;37.184;2024-02-21T06:14:21;99858.28;;;-6.85;55.29
65534;BME280;53640;55.838;37.184;2024-02-21T06:16:47;99787.44;;;-7.31;55.08
65534;BME280;53640;55.838;37.184;2024-02-21T06:19:13;99841.16;;;-6.92;55.19
65534;BME280;53640;55.838;37.184;2024-02-21T06:21:41;99865.03;;;-6.81;55.17
65534;BME280;53640;55.838;37.184;2024-02-21T06:24:07;99791.09;;;-7.20;54.88
65534;BME280;53640;55.838;37.184;2024-02-21T06:26:34;99824.25;;;-6.88;54.92
65534;BME280;53640;55.838;37.184;2024-02-21T06:29:06;99807.00;;;-7.07;54.98
65534;BME280;53640;55.838;37.184;2024-02-21T06:31:33;99852.06;;;-6.70;54.91
65534;BME280;53640;55.838;37.184;2024-02-21T06:33:59;99819.16;;;-6.77;54.84
65534;BME280;53640;55.838;37.184;2024-02-21T06:36:25;99791.94;;;-6.90;54.71
65534;BME280;53640;55.838;37.184;2024-02-21T06:38:52;99839.72;;;-6.55;54.51
65534;BME280;53640;55.838;37.184;2024-02-21T06:41:19;99826.38;;;-6.66;54.62
65534;BME280;53640;55.838;37.184;2024-02-21T06:43:46;99846.31;;;-6.62;54.62
65534;BME280;53640;55.838;37.184;2024-02-21T06:46:29;99794.81;;;-6.81;54.80
65534;BME280;53640;55.838;37.184;2024-02-21T06:48:56;99835.56;;;-6.45;54.77
65534;BME280;53640;55.838;37.184;2024-02-21T06:51:48;99853.97;;;-6.31;54.67
65534;BME280;53640;55.838;37.184;2024-02-21T06:55:15;99722.69;;;-7.05;54.86
65534;BME280;53640;55.838;37.184;2024-02-21T06:57:58;99671.91;;;-7.34;54.81
65534;BME280;53640;55.838;37.184;2024-02-21T07:00:53;99780.50;;;-6.62;54.78
65534;BME280;53640;55.838;37.184;2024-02-21T07:03:20;99747.38;;;-6.79;54.52
65534;BME280;53640;55.838;37.184;2024-02-21T07:05:48;99788.91;;;-6.43;54.62
65534;BME280;53640;55.838;37.184;2024-02-21T07:08:18;99834.28;;;-6.25;54.29
65534;BME280;53640;55.838;37.184;2024-02-21T07:10:46;99825.63;;;-6.13;54.12
65534;BME280;53640;55.838;37.184;2024-02-21T07:13:12;99836.50;;;-6.05;54.32
65534;BME280;53640;55.838;37.184;2024-02-21T07:15:39;99729.47;;;-6.74;54.11
65534;BME280;53640;55.838;37.184;2024-02-21T07:18:06;99813.63;;;-6.04;53.73
65534;BME280;53640;55.838;37.184;2024-02-21T07:20:33;99811.44;;;-5.97;53.99
65534;BME280;53640;55.838;37.184;2024-02-21T07:23:03;99797.16;;;-6.08;53.54
65534;BME280;53640;55.838;37.184;2024-02-21T07:25:31;99802.56;;;-5.96;53.35
65534;BME280;53640;55.838;37.184;2024-02-21T07:27:59;99722.44;;;-6.47;53.51
65534;BME280;53640;55.838;37.184;2024-02-21T07:30:26;99816.09;;;-5.76;52.76
65534;BME280;53640;55.838;37.184;2024-02-21T07:33:19;99824.66;;;-5.72;53.28
65534;BME280;53640;55.838;37.184;2024-02-21T07:36:37;99814.66;;;-5.67;53.32
65534;BME280;53640;55.838;37.184;2024-02-21T07:39:35;99721.72;;;-6.36;53.39
65534;BME280;53640;55.838;37.184;2024-02-21T07:42:17;99656.25;;;-6.67;53.47
65534;BME280;53640;55.838;37.184;2024-02-21T07:45:25;99745.63;;;-6.12;53.27
65534;BME280;53640;55.838;37.184;2024-02-21T07:51:53;99704.69;;;-6.17;53.73
65534;BME280;53640;55.838;37.184;2024-02-21T07:54:40;99687.44;;;-5.83;53.57
65534;BME280;53640;55.838;37.184;2024-02-21T07:57:13;99677.25;;;-5.75;52.96
65534;BME280;53640;55.838;37.184;2024-02-21T08:00:08;99744.50;;;-5.06;52.78
65534;BME280;53640;55.838;37.184;2024-02-21T08:06:51;99719.78;;;-4.68;51.45
65534;BME280;53640;55.838;37.184;2024-02-21T08:09:21;99723.81;;;-4.27;51.64
65534;BME280;53640;55.838;37.184;2024-02-21T08:11:49;99647.34;;;-4.53;50.35
65534;BME280;53640;55.838;37.184;2024-02-21T08:14:15;99690.22;;;-4.14;50.20
65534;BME280;53640;55.838;37.184;2024-02-21T08:16:42;99680.63;;;-4.04;47.71
65534;BME280;53640;55.838;37.184;2024-02-21T08:19:10;99801.28;;;-3.10;48.83
65534;BME280;53640;55.838;37.184;2024-02-21T08:21:43;99817.19;;;-2.76;49.53
65534;BME280;53640;55.838;37.184;2024-02-21T08:24:14;99771.19;;;-2.75;48.05
65534;BME280;53640;55.838;37.184;2024-02-21T08:26:44;99778.91;;;-2.72;46.95
65534;BME280;53640;55.838;37.184;2024-02-21T08:29:12;99778.84;;;-2.49;46.28
65534;BME280;53640;55.838;37.184;2024-02-21T08:31:40;99799.19;;;-2.39;44.86
65534;BME280;53640;55.838;37.184;2024-02-21T08:34:06;99761.53;;;-2.65;45.45
65534;BME280;53640;55.838;37.184;2024-02-21T08:36:34;99777.91;;;-2.60;46.58
65534;BME280;53640;55.838;37.184;2024-02-21T08:39:02;99784.03;;;-2.37;45.64
65534;BME280;53640;55.838;37.184;2024-02-21T08:41:32;99776.84;;;-2.14;45.69
65534;BME280;53640;55.838;37.184;2024-02-21T08:44:02;99742.63;;;-2.17;46.70
65534;BME280;53640;55.838;37.184;2024-02-21T08:46:30;99643.59;;;-2.48;46.18
65534;BME280;53640;55.838;37.184;2024-02-21T08:48:59;99625.91;;;-2.59;44.70
65534;BME280;53640;55.838;37.184;2024-02-21T08:51:55;99705.34;;;-2.36;44.72
65534;BME280;53640;55.838;37.184;2024-02-21T08:54:22;99718.47;;;-2.35;45.06
65534;BME280;53640;55.838;37.184;2024-02-21T08:56:48;99790.53;;;-1.97;44.77
65534;BME280;53640;55.838;37.184;2024-02-21T08:59:14;99783.44;;;-2.08;44.73
65534;BME280;53640;55.838;37.184;2024-02-21T09:01:44;99777.63;;;-2.34;45.10
65534;BME280;53640;55.838;37.184;2024-02-21T09:04:11;99728.09;;;-2.77;45.32
65534;BME280;53640;55.838;37.184;2024-02-21T09:06:38;99783.69;;;-2.43;44.63
65534;BME280;53640;55.838;37.184;2024-02-21T09:09:14;99714.28;;;-3.03;45.17
65534;BME280;53640;55.838;37.184;2024-02-21T09:11:40;99689.13;;;-3.31;45.64
65534;BME280;53640;55.838;37.184;2024-02-21T09:14:08;99700.09;;;-3.24;45.41
65534;BME280;53640;55.838;37.184;2024-02-21T09:16:35;99759.53;;;-3.06;45.80
65534;BME280;53640;55.838;37.184;2024-02-21T09:19:06;99769.06;;;-3.15;46.37
65534;BME280;53640;55.838;37.184;2024-02-21T09:21:33;99720.88;;;-3.42;46.18
65534;BME280;53640;55.838;37.184;2024-02-21T09:24:00;99802.47;;;-3.25;46.83
65534;BME280;53640;55.838;37.184;2024-02-21T09:26:29;99695.59;;;-3.69;46.42
65534;BME280;53640;55.838;37.184;2024-02-21T09:29:02;99646.63;;;-4.08;46.89
65534;BME280;53640;55.838;37.184;2024-02-21T09:31:31;99754.69;;;-3.57;46.96
65534;BME280;53640;55.838;37.184;2024-02-21T09:33:59;99763.50;;;-3.34;46.59
65534;BME280;53640;55.838;37.184;2024-02-21T09:36:25;99677.56;;;-3.86;46.71
65534;BME280;53640;55.838;37.184;2024-02-21T09:38:54;99662.38;;;-3.95;47.42
65534;BME280;53640;55.838;37.184;2024-02-21T09:41:27;99739.78;;;-3.36;47.74
65534;BME280;53640;55.838;37.184;2024-02-21T09:43:55;99687.56;;;-3.67;47.14
65534;BME280;53640;55.838;37.184;2024-02-21T09:51:44;99761.69;;;-3.45;47.49
65534;BME280;53640;55.838;37.184;2024-02-21T09:54:14;99685.09;;;-4.04;47.96
65534;BME280;53640;55.838;37.184;2024-02-21T09:56:45;99758.88;;;-3.55;47.68
65534;BME280;53640;55.838;37.184;2024-02-21T09:59:16;99751.78;;;-3.54;47.81
65534;BME280;53640;55.838;37.184;2024-02-21T10:01:52;99655.59;;;-4.22;47.87
65534;BME280;53640;55.838;37.184;2024-02-21T10:04:21;99670.44;;;-4.43;48.19
65534;BME280;53640;55.838;37.184;2024-02-21T10:06:51;99704.91;;;-4.10;48.31
65534;BME280;53640;55.838;37.184;2024-02-21T10:09:25;99598.47;;;-4.82;48.66
65534;BME280;53640;55.838;37.184;2024-02-21T10:12:37;99754.75;;;-3.81;48.40
65534;BME280;53640;55.838;37.184;2024-02-21T10:15:12;99753.63;;;-3.90;48.53
65534;BME280;53640;55.838;37.184;2024-02-21T10:17:40;99734.25;;;-4.01;49.10
65534;BME280;53640;55.838;37.184;2024-02-21T10:20:10;99740.47;;;-4.03;48.41
65534;BME280;53640;55.838;37.184;2024-02-21T10:22:38;99673.56;;;-4.38;48.61
65534;BME280;53640;55.838;37.184;2024-02-21T10:25:10;99711.66;;;-4.06;48.25
65534;BME280;53640;55.838;37.184;2024-02-21T10:27:41;99691.97;;;-4.25;49.22
65534;BME280;53640;55.838;37.184;2024-02-21T10:30:13;99767.78;;;-4.02;49.34
65534;BME280;53640;55.838;37.184;2024-02-21T10:32:54;99691.44;;;-4.42;49.82
65534;BME280;53640;55.838;37.184;2024-02-21T10:35:34;99676.16;;;-4.49;49.27
65534;BME280;53640;55.838;37.184;2024-02-21T10:38:01;99595.84;;;-5.06;48.72
65534;BME280;53640;55.838;37.184;2024-02-21T10:40:30;99646.84;;;-4.82;49.48
65534;BME280;53640;55.838;37.184;2024-02-21T10:43:03;99697.13;;;-4.59;49.82
65534;BME280;53640;55.838;37.184;2024-02-21T10:45:36;99649.25;;;-4.79;49.48
65534;BME280;53640;55.838;37.184;2024-02-21T10:48:15;99713.81;;;-4.35;49.60
65534;BME280;53640;55.838;37.184;2024-02-21T10:56:30;99729.81;;;-4.25;49.86
65534;BME280;53640;55.838;37.184;2024-02-21T10:59:01;99672.34;;;-4.45;49.45
65534;BME280;53640;55.838;37.184;2024-02-21T11:01:30;99687.50;;;-4.36;49.13
65534;BME280;53640;55.838;37.184;2024-02-21T11:04:09;99721.72;;;-4.11;49.19
65534;BME280;53640;55.838;37.184;2024-02-21T11:06:39;99724.09;;;-4.19;49.55
65534;BME280;53640;55.838;37.184;2024-02-21T11:09:16;99725.19;;;-4.10;48.85
65534;BME280;53640;55.838;37.184;2024-02-21T11:11:44;99650.31;;;-4.57;49.14
65534;BME280;53640;55.838;37.184;2024-02-21T11:14:21;99715.75;;;-4.25;49.83
65534;BME280;53640;55.838;37.184;2024-02-21T11:16:51;99723.03;;;-4.16;49.35
65534;BME280;53640;55.838;37.184;2024-02-21T11:19:25;99727.88;;;-3.99;49.28
65534;BME280;53640;55.838;37.184;2024-02-21T11:21:55;99689.34;;;-4.25;49.30
65534;BME280;53640;55.838;37.184;2024-02-21T11:24:30;99688.88;;;-4.19;49.27
65534;BME280;53640;55.838;37.184;2024-02-21T11:27:21;99726.66;;;-4.06;50.12
65534;BME280;53640;55.838;37.184;2024-02-21T11:29:49;99730.03;;;-4.04;49.42
65534;BME280;53640;55.838;37.184;2024-02-21T11:32:24;99727.16;;;-4.01;49.47
65534;BME280;53640;55.838;37.184;2024-02-21T11:35:04;99646.56;;;-4.66;49.31
65534;BME280;53640;55.838;37.184;2024-02-21T11:37:36;99699.66;;;-4.34;49.67
65534;BME280;53640;55.838;37.184;2024-02-21T11:40:07;99700.56;;;-4.46;49.96
65534;BME280;53640;55.838;37.184;2024-02-21T11:42:36;99724.53;;;-4.25;49.33
65534;BME280;53640;55.838;37.184;2024-02-21T11:45:03;99673.19;;;-4.69;49.82
65534;BME280;53640;55.838;37.184;2024-02-21T11:47:34;99686.59;;;-4.48;49.40
65534;BME280;53640;55.838;37.184;2024-02-21T11:50:10;99718.25;;;-4.35;50.20
65534;BME280;53640;55.838;37.184;2024-02-21T11:52:36;99619.75;;;-4.96;50.15
65534;BME280;53640;55.838;37.184;2024-02-21T11:55:04;99725.44;;;-4.37;49.99
65534;BME280;53640;55.838;37.184;2024-02-21T11:57:33;99692.31;;;-4.65;50.41
65534;BME280;53640;55.838;37.184;2024-02-21T12:00:16;99660.78;;;-4.80;50.48
65534;BME280;53640;55.838;37.184;2024-02-21T12:02:46;99702.31;;;-4.58;50.51
65534;BME280;53640;55.838;37.184;2024-02-21T12:05:14;99657.97;;;-4.65;50.22
65534;BME280;53640;55.838;37.184;2024-02-21T12:07:42;99695.06;;;-4.43;50.26
65534;BME280;53640;55.838;37.184;2024-02-21T12:10:11;99703.81;;;-4.42;50.12
65534;BME280;53640;55.838;37.184;2024-02-21T12:12:38;99707.13;;;-4.52;50.69
65534;BME280;53640;55.838;37.184;2024-02-21T12:15:07;99706.69;;;-4.45;50.60
65534;BME280;53640;55.838;37.184;2024-02-21T12:17:36;99674.81;;;-4.55;50.40
65534;BME280;53640;55.838;37.184;2024-02-21T12:20:03;99615.66;;;-5.01;50.97
65534;BME280;53640;55.838;37.184;2024-02-21T12:22:38;99646.78;;;-4.69;50.26
65534;BME280;53640;55.838;37.184;2024-02-21T12:25:29;99625.03;;;-4.72;50.30
65534;BME280;53640;55.838;37.184;2024-02-21T12:27:56;99694.50;;;-4.35;50.62
65534;BME280;53640;55.838;37.184;2024-02-21T12:30:23;99693.03;;;-4.39;50.29
65534;BME280;53640;55.838;37.184;2024-02-21T12:32:50;99704.09;;;-4.34;50.27
65534;BME280;53640;55.838;37.184;2024-02-21T12:35:16;99657.06;;;-4.53;50.50
65534;BME280;53640;55.838;37.184;2024-02-21T12:37:46;99661.72;;;-4.57;50.56
65534;BME280;53640;55.838;37.184;2024-02-21T12:40:12;99557.72;;;-5.26;50.92
65534;BME280;53640;55.838;37.184;2024-02-21T12:42:42;99661.94;;;-4.60;51.04
65534;BME280;53640;55.838;37.184;2024-02-21T12:45:09;99663.47;;;-4.68;50.58
65534;BME280;53640;55.838;37.184;2024-02-21T12:47:35;99597.50;;;-4.92;50.71
65534;BME280;53640;55.838;37.184;2024-02-21T12:50:03;99692.91;;;-4.38;50.81
65534;BME280;53640;55.838;37.184;2024-02-21T12:52:30;99586.19;;;-4.94;50.67
65534;BME280;53640;55.838;37.184;2024-02-21T12:54:59;99547.53;;;-5.19;50.52
65534;BME280;53640;55.838;37.184;2024-02-21T12:57:28;99626.06;;;-4.62;50.65
65534;BME280;53640;55.838;37.184;2024-02-21T12:59:55;99522.34;;;-5.23;50.50
65534;BME280;53640;55.838;37.184;2024-02-21T13:02:24;99541.59;;;-5.10;50.87
65534;BME280;53640;55.838;37.184;2024-02-21T13:04:50;99626.91;;;-4.62;50.74
65534;BME280;53640;55.838;37.184;2024-02-21T13:07:17;99628.13;;;-4.55;50.76
65534;BME280;53640;55.838;37.184;2024-02-21T13:09:45;99657.72;;;-4.38;51.20
65534;BME280;53640;55.838;37.184;2024-02-21T13:12:14;99667.84;;;-4.56;50.88
65534;BME280;53640;55.838;37.184;2024-02-21T13:14:42;99590.69;;;-4.84;50.63
65534;BME280;53640;55.838;37.184;2024-02-21T13:17:10;99544.81;;;-5.18;50.81
65534;BME280;53640;55.838;37.184;2024-02-21T13:19:36;99589.22;;;-4.88;50.63
65534;BME280;53640;55.838;37.184;2024-02-21T13:22:04;99704.72;;;-4.31;50.88